createdAt,value
2019-02-27T00:02:00.214Z,26.82
2019-02-27T00:04:34.844Z,28.02
2019-02-27T00:07:04.911Z,23.40
2019-02-27T00:09:36.341Z,23.90
2019-02-27T00:12:08.070Z,25.92
2019-02-27T00:14:39.607Z,28.40
2019-02-27T00:17:11.946Z,26.23
2019-02-27T00:19:43.286Z,25.25
2019-02-27T00:22:14.940Z,29.45
2019-02-27T00:24:47.555Z,25.90
2019-02-27T00:27:19.205Z,31.33
2019-02-27T00:29:50.773Z,31.65
2019-02-27T00:32:22.347Z,26.70
2019-02-27T00:34:53.739Z,25.90
2019-02-27T00:37:25.239Z,28.80
2019-02-27T00:39:56.930Z,30.30
2019-02-27T00:42:33.489Z,25.77
2019-02-27T00:45:06.828Z,27.22
2019-02-27T00:47:36.511Z,25.72
2019-02-27T00:50:08.072Z,27.20
2019-02-27T00:52:39.416Z,25.37
2019-02-27T00:55:10.898Z,25.08
2019-02-27T00:57:42.267Z,24.85
2019-02-27T01:00:16.198Z,24.27
2019-02-27T01:02:52.760Z,23.45
2019-02-27T01:05:21.863Z,24.43
2019-02-27T01:07:54.198Z,23.20
2019-02-27T01:10:26.302Z,23.30
2019-02-27T01:12:58.769Z,22.22
2019-02-27T01:15:30.381Z,20.00
2019-02-27T01:18:01.601Z,22.60
2019-02-27T01:20:33.309Z,23.20
2019-02-27T01:23:04.672Z,21.48
2019-02-27T01:25:36.228Z,22.35
2019-02-27T01:28:10.837Z,21.37
2019-02-27T01:30:41.650Z,21.50
2019-02-27T01:33:12.967Z,23.57
2019-02-27T01:35:44.756Z,21.48
2019-02-27T01:38:16.044Z,22.10
2019-02-27T01:40:49.004Z,21.90
2019-02-27T01:43:20.461Z,21.05
2019-02-27T01:45:54.252Z,19.05
2019-02-27T01:48:25.111Z,16.93
2019-02-27T01:50:56.563Z,18.92
2019-02-27T01:53:28.027Z,16.70
2019-02-27T01:55:59.399Z,19.20
2019-02-27T01:58:30.913Z,16.62
2019-02-27T02:01:02.438Z,16.55
2019-02-27T02:03:34.231Z,16.15
2019-02-27T02:06:06.247Z,16.23
2019-02-27T02:08:37.609Z,14.28
2019-02-27T02:11:09.265Z,14.70
2019-02-27T02:14:21.190Z,13.50
2019-02-27T02:17:29.220Z,12.80
2019-02-27T02:20:35.792Z,14.03
2019-02-27T02:23:52.006Z,15.45
2019-02-27T02:27:09.222Z,18.07
2019-02-27T02:30:14.728Z,13.95
2019-02-27T02:33:47.722Z,13.98
2019-02-27T02:37:08.458Z,13.85
2019-02-27T02:40:18.823Z,13.45
2019-02-27T02:43:41.475Z,13.00
2019-02-27T02:46:19.701Z,11.90
2019-02-27T02:49:43.993Z,16.32
2019-02-27T02:52:32.531Z,13.83
2019-02-27T02:55:20.578Z,18.73
2019-02-27T02:58:20.909Z,16.20
2019-02-27T03:01:05.064Z,13.95
2019-02-27T03:03:47.690Z,14.07
2019-02-27T03:06:38.689Z,20.57
2019-02-27T03:10:07.148Z,18.70
2019-02-27T03:13:25.981Z,19.75
2019-02-27T03:16:29.016Z,18.50
2019-02-27T03:19:34.282Z,21.20
2019-02-27T03:22:30.728Z,24.70
2019-02-27T03:25:40.126Z,18.67
2019-02-27T03:28:55.467Z,17.67
2019-02-27T03:31:59.879Z,22.25
2019-02-27T03:35:11.290Z,22.05
2019-02-27T03:38:29.636Z,17.07
2019-02-27T03:41:44.394Z,23.70
2019-02-27T03:44:42.984Z,20.40
2019-02-27T03:47:58.314Z,25.15
2019-02-27T03:51:03.600Z,24.32
2019-02-27T03:54:24.866Z,23.47
2019-02-27T03:57:05.265Z,21.62
2019-02-27T04:00:17.831Z,21.48
2019-02-27T04:03:17.035Z,21.12
2019-02-27T04:06:25.476Z,23.57
2019-02-27T04:08:58.053Z,20.52
2019-02-27T04:11:29.951Z,26.55
2019-02-27T04:14:04.840Z,22.48
2019-02-27T04:16:37.878Z,24.52
2019-02-27T04:19:08.069Z,22.82
2019-02-27T04:21:39.677Z,19.25
2019-02-27T04:24:11.316Z,25.70
2019-02-27T04:26:43.095Z,15.75
2019-02-27T04:29:14.636Z,19.17
2019-02-27T04:31:46.272Z,18.55
2019-02-27T04:34:17.523Z,17.05
2019-02-27T04:36:48.986Z,19.82
2019-02-27T04:39:20.257Z,20.00
2019-02-27T04:41:51.999Z,19.45
2019-02-27T04:44:24.214Z,20.20
2019-02-27T04:46:55.614Z,21.42
2019-02-27T04:49:26.971Z,18.07
2019-02-27T04:51:58.548Z,16.77
2019-02-27T04:54:29.890Z,18.85
2019-02-27T04:57:01.152Z,16.20
2019-02-27T04:59:32.714Z,16.95
2019-02-27T05:02:04.140Z,18.42
2019-02-27T05:04:35.884Z,19.05
2019-02-27T05:07:07.244Z,17.80
2019-02-27T05:09:38.757Z,19.07
2019-02-27T05:12:10.290Z,20.60
2019-02-27T05:14:41.788Z,17.17
2019-02-27T05:17:13.253Z,17.15
2019-02-27T05:19:44.535Z,17.60
2019-02-27T05:22:16.030Z,21.95
2019-02-27T05:24:47.592Z,26.17
2019-02-27T05:27:19.342Z,23.90
2019-02-27T05:29:50.979Z,28.70
2019-02-27T05:32:22.256Z,24.98
2019-02-27T05:34:53.892Z,27.22
2019-02-27T05:37:25.198Z,20.80
2019-02-27T05:39:56.445Z,23.30
2019-02-27T05:42:27.807Z,19.80
2019-02-27T05:44:59.025Z,19.95
2019-02-27T05:47:30.293Z,18.55
2019-02-27T05:50:01.863Z,23.15
2019-02-27T05:52:33.384Z,20.82
2019-02-27T05:55:06.376Z,17.25
2019-02-27T05:57:38.161Z,20.15
2019-02-27T06:00:13.058Z,18.48
2019-02-27T06:02:45.582Z,17.90
2019-02-27T06:05:17.268Z,21.85
2019-02-27T06:07:48.693Z,17.15
2019-02-27T06:10:21.149Z,16.80
2019-02-27T06:12:53.751Z,17.75
2019-02-27T06:15:26.057Z,18.92
2019-02-27T06:17:58.139Z,24.12
2019-02-27T06:20:29.595Z,18.17
2019-02-27T06:23:04.161Z,18.25
2019-02-27T06:25:34.360Z,18.55
2019-02-27T06:28:05.597Z,15.50
2019-02-27T06:30:37.069Z,14.47
2019-02-27T06:33:11.599Z,18.07
2019-02-27T06:35:41.600Z,14.50
2019-02-27T06:38:13.222Z,18.60
2019-02-27T06:40:44.473Z,20.20
2019-02-27T06:43:15.919Z,18.15
2019-02-27T06:45:47.533Z,22.45
2019-02-27T06:48:19.204Z,20.27
2019-02-27T06:50:50.747Z,20.65
2019-02-27T06:53:22.211Z,19.98
2019-02-27T06:55:53.793Z,21.20
2019-02-27T06:58:25.132Z,20.70
2019-02-27T07:00:56.821Z,22.35
2019-02-27T07:03:29.439Z,20.77
2019-02-27T07:06:02.026Z,19.32
2019-02-27T07:08:37.906Z,19.07
2019-02-27T07:11:10.879Z,19.73
2019-02-27T07:13:40.112Z,17.70
2019-02-27T07:16:13.397Z,20.08
2019-02-27T07:18:44.955Z,22.75
2019-02-27T07:21:16.268Z,20.40
2019-02-27T07:23:47.892Z,22.87
2019-02-27T07:26:19.294Z,20.90
2019-02-27T07:28:51.919Z,21.07
2019-02-27T07:31:23.742Z,24.90
2019-02-27T07:33:55.058Z,19.87
2019-02-27T07:36:26.467Z,18.30
2019-02-27T07:38:58.900Z,19.62
2019-02-27T07:41:31.438Z,22.50
2019-02-27T07:44:02.799Z,23.32
2019-02-27T07:46:35.569Z,22.25
2019-02-27T07:49:07.477Z,17.67
2019-02-27T07:51:39.100Z,20.60
2019-02-27T07:54:10.463Z,22.77
2019-02-27T07:56:41.865Z,19.05
2019-02-27T07:59:13.326Z,18.73
2019-02-27T08:01:44.804Z,20.00
2019-02-27T08:04:19.053Z,20.05
2019-02-27T08:06:49.205Z,21.35
2019-02-27T08:09:20.486Z,18.00
2019-02-27T08:11:51.798Z,19.23
2019-02-27T08:14:23.161Z,17.62
2019-02-27T08:16:57.146Z,21.57
2019-02-27T08:19:27.966Z,21.30
2019-02-27T08:21:59.379Z,19.23
2019-02-27T08:24:30.754Z,18.62
2019-02-27T08:27:02.012Z,21.95
2019-02-27T08:29:33.277Z,21.25
2019-02-27T08:32:05.615Z,21.23
2019-02-27T08:34:36.842Z,20.62
2019-02-27T08:37:08.117Z,17.20
2019-02-27T08:39:39.702Z,21.12
2019-02-27T08:42:11.364Z,19.80
2019-02-27T08:44:45.921Z,19.90
2019-02-27T08:47:16.284Z,18.20
2019-02-27T08:49:47.973Z,22.98
2019-02-27T08:52:19.518Z,18.27
2019-02-27T08:54:50.824Z,21.42
2019-02-27T08:57:22.261Z,22.02
2019-02-27T08:59:53.944Z,19.45
2019-02-27T09:02:29.198Z,19.02
2019-02-27T09:04:58.562Z,17.45
2019-02-27T09:07:29.917Z,17.65
2019-02-27T09:10:01.511Z,17.77
2019-02-27T09:12:33.260Z,15.70
2019-02-27T09:15:04.849Z,16.45
2019-02-27T09:17:36.541Z,17.82
2019-02-27T09:20:08.936Z,16.70
2019-02-27T09:22:40.312Z,17.07
2019-02-27T09:25:11.770Z,19.67
2019-02-27T09:27:43.210Z,19.73
2019-02-27T09:30:15.729Z,18.70
2019-02-27T09:32:47.449Z,17.70
2019-02-27T09:35:19.456Z,19.23
2019-02-27T09:37:52.063Z,16.20
2019-02-27T09:40:23.816Z,16.80
2019-02-27T09:42:55.535Z,15.98
2019-02-27T09:45:31.198Z,20.12
2019-02-27T09:48:03.012Z,22.27
2019-02-27T09:50:35.943Z,16.42
2019-02-27T09:53:07.699Z,19.37
2019-02-27T09:55:39.539Z,16.52
2019-02-27T09:58:11.692Z,21.17
2019-02-27T10:00:45.321Z,16.42
2019-02-27T10:03:20.503Z,19.98
2019-02-27T10:05:50.501Z,16.45
2019-02-27T10:08:21.988Z,18.37
2019-02-27T10:10:53.439Z,20.43
2019-02-27T10:13:25.087Z,14.70
2019-02-27T10:16:00.397Z,13.72
2019-02-27T10:18:30.248Z,16.52
2019-02-27T10:21:01.825Z,15.08
2019-02-27T10:23:33.457Z,14.18
2019-02-27T10:26:05.307Z,14.35
2019-02-27T10:28:39.648Z,15.10
2019-02-27T10:31:12.605Z,16.23
2019-02-27T10:33:43.817Z,18.25
2019-02-27T10:36:16.280Z,14.70
2019-02-27T10:38:47.999Z,14.65
2019-02-27T10:41:19.649Z,15.93
2019-02-27T10:43:51.092Z,13.48
2019-02-27T10:46:23.675Z,14.98
2019-02-27T10:48:55.592Z,16.95
2019-02-27T10:51:27.414Z,17.45
2019-02-27T10:54:02.333Z,16.95
2019-02-27T10:56:32.250Z,15.60
2019-02-27T10:59:04.001Z,16.37
2019-02-27T11:01:36.384Z,15.10
2019-02-27T11:04:09.123Z,14.75
2019-02-27T11:06:40.718Z,16.85
2019-02-27T11:09:25.882Z,15.55
2019-02-27T11:11:57.316Z,13.80
2019-02-27T11:14:31.713Z,14.98
2019-02-27T11:17:02.687Z,14.80
2019-02-27T11:19:35.119Z,15.72
2019-02-27T11:22:06.636Z,13.03
2019-02-27T11:24:38.323Z,14.65
2019-02-27T11:27:09.957Z,16.05
2019-02-27T11:29:41.551Z,14.80
2019-02-27T11:32:13.239Z,13.78
2019-02-27T11:34:45.574Z,15.75
2019-02-27T11:37:18.035Z,14.30
2019-02-27T11:39:49.599Z,15.15
2019-02-27T11:42:21.017Z,14.70
2019-02-27T11:44:52.528Z,15.90
2019-02-27T11:47:25.474Z,13.28
2019-02-27T11:49:57.128Z,16.32
2019-02-27T11:52:28.896Z,13.40
2019-02-27T11:55:01.805Z,16.45
2019-02-27T11:57:33.221Z,15.20
2019-02-27T12:00:04.893Z,15.35
2019-02-27T12:02:38.262Z,15.28
2019-02-27T12:05:10.706Z,17.65
2019-02-27T12:07:42.219Z,19.07
2019-02-27T12:10:16.592Z,15.20
2019-02-27T12:12:48.028Z,15.32
2019-02-27T12:15:20.772Z,18.25
2019-02-27T12:17:52.426Z,14.73
2019-02-27T12:20:25.002Z,14.45
2019-02-27T12:22:56.831Z,17.98
2019-02-27T12:25:30.130Z,20.50
2019-02-27T12:28:02.087Z,15.43
2019-02-27T12:30:37.201Z,17.75
2019-02-27T12:33:07.763Z,16.02
2019-02-27T12:35:44.193Z,14.73
2019-02-27T12:38:12.516Z,20.23
2019-02-27T12:40:43.983Z,14.93
2019-02-27T12:43:18.371Z,18.42
2019-02-27T12:45:48.850Z,16.57
2019-02-27T12:48:20.657Z,15.95
2019-02-27T12:50:52.445Z,16.95
2019-02-27T12:53:23.970Z,18.02
2019-02-27T12:55:55.588Z,22.87
2019-02-27T12:58:27.289Z,18.37
2019-02-27T13:00:58.942Z,20.72
2019-02-27T13:03:30.294Z,18.07
2019-02-27T13:06:01.770Z,17.82
2019-02-27T13:08:33.173Z,19.00
2019-02-27T13:11:05.230Z,21.20
2019-02-27T13:13:37.746Z,24.18
2019-02-27T13:16:14.239Z,22.00
2019-02-27T13:18:44.004Z,20.43
2019-02-27T13:21:20.106Z,21.20
2019-02-27T13:23:48.917Z,16.52
2019-02-27T13:26:20.343Z,18.92
2019-02-27T13:28:52.075Z,20.45
2019-02-27T13:31:23.614Z,20.75
2019-02-27T13:33:55.162Z,17.40
2019-02-27T13:36:26.767Z,21.05
2019-02-27T13:38:59.394Z,20.00
2019-02-27T13:41:30.813Z,21.85
2019-02-27T13:44:02.522Z,20.50
2019-02-27T13:46:34.312Z,20.30
2019-02-27T13:49:05.835Z,18.65
2019-02-27T13:51:40.175Z,27.15
2019-02-27T13:54:10.874Z,25.92
2019-02-27T13:56:42.446Z,23.52
2019-02-27T13:59:13.884Z,21.82
2019-02-27T14:01:45.404Z,20.27
2019-02-27T14:04:21.727Z,22.07
2019-02-27T14:06:50.215Z,18.20
2019-02-27T14:09:21.653Z,24.47
2019-02-27T14:11:58.442Z,21.25
2019-02-27T14:14:28.055Z,22.22
2019-02-27T14:16:59.383Z,25.20
2019-02-27T14:19:31.174Z,23.87
2019-02-27T14:22:07.212Z,22.13
2019-02-27T14:24:38.266Z,20.80
2019-02-27T14:27:12.021Z,23.32
2019-02-27T14:29:42.812Z,21.15
2019-02-27T14:32:15.116Z,28.10
2019-02-27T14:34:46.682Z,19.95
2019-02-27T14:37:18.054Z,17.95
2019-02-27T14:39:49.994Z,12.73
2019-02-27T14:42:21.618Z,13.70
2019-02-27T14:44:53.306Z,14.90
2019-02-27T14:47:25.048Z,12.70
2019-02-27T14:49:59.330Z,17.12
2019-02-27T14:52:29.476Z,15.10
2019-02-27T14:55:03.531Z,14.43
2019-02-27T14:57:34.341Z,14.23
2019-02-27T15:00:08.821Z,14.85
2019-02-27T15:02:40.442Z,16.10
2019-02-27T15:05:12.308Z,12.85
2019-02-27T15:07:43.929Z,16.05
2019-02-27T15:10:16.096Z,17.77
2019-02-27T15:12:47.700Z,16.82
2019-02-27T15:15:24.117Z,18.07
2019-02-27T15:17:55.846Z,27.95
2019-02-27T15:20:28.194Z,18.65
2019-02-27T15:22:59.995Z,20.85
2019-02-27T15:25:31.271Z,24.95
2019-02-27T15:28:02.910Z,43.30
2019-02-27T15:30:34.962Z,18.10
2019-02-27T15:33:06.739Z,23.10
2019-02-27T15:35:38.410Z,21.10
2019-02-27T15:38:11.748Z,21.52
2019-02-27T15:40:43.396Z,20.82
2019-02-27T15:43:17.301Z,20.20
2019-02-27T15:45:49.115Z,26.27
2019-02-27T15:48:20.467Z,17.17
2019-02-27T15:50:56.569Z,18.98
2019-02-27T15:53:25.640Z,19.07
2019-02-27T15:55:57.207Z,18.30
2019-02-27T15:58:28.896Z,18.87
2019-02-27T16:01:00.560Z,18.75
2019-02-27T16:03:32.356Z,22.20
2019-02-27T16:06:05.682Z,19.87
2019-02-27T16:08:37.209Z,22.15
2019-02-27T16:11:08.863Z,44.25
2019-02-27T16:13:40.591Z,49.20
2019-02-27T16:16:12.338Z,43.00
2019-02-27T16:18:43.913Z,46.80
2019-02-27T16:21:15.451Z,50.25
2019-02-27T16:23:47.142Z,52.53
2019-02-27T16:26:18.437Z,38.42
2019-02-27T16:28:49.842Z,40.85
2019-02-27T16:31:21.201Z,39.53
2019-02-27T16:33:55.615Z,40.73
2019-02-27T16:36:25.383Z,34.80
2019-02-27T16:38:56.815Z,38.55
2019-02-27T16:41:29.358Z,35.03
2019-02-27T16:44:01.197Z,37.05
2019-02-27T16:46:32.462Z,31.48
2019-02-27T16:49:03.937Z,30.90
2019-02-27T16:51:35.321Z,30.17
2019-02-27T16:54:06.918Z,30.48
2019-02-27T16:56:38.466Z,29.42
2019-02-27T16:59:12.121Z,33.90
2019-02-27T17:01:43.178Z,29.77
2019-02-27T17:04:14.662Z,33.88
2019-02-27T17:06:49.221Z,32.13
2019-02-27T17:09:19.561Z,30.52
2019-02-27T17:11:51.170Z,30.12
2019-02-27T17:14:24.548Z,35.55
2019-02-27T17:16:55.433Z,33.48
2019-02-27T17:19:26.775Z,31.12
2019-02-27T17:21:58.805Z,35.63
2019-02-27T17:24:30.735Z,43.13
2019-02-27T17:27:01.931Z,37.28
2019-02-27T17:29:33.189Z,44.88
2019-02-27T17:32:04.648Z,43.05
2019-02-27T17:34:36.130Z,42.40
2019-02-27T17:37:07.638Z,35.70
2019-02-27T17:39:38.967Z,36.55
2019-02-27T17:42:10.405Z,35.10
2019-02-27T17:44:41.921Z,43.17
2019-02-27T17:47:13.470Z,37.73
2019-02-27T17:49:44.726Z,34.60
2019-02-27T17:52:15.973Z,35.78
2019-02-27T17:54:47.477Z,35.13
2019-02-27T17:57:24.170Z,32.67
2019-02-27T17:59:52.138Z,37.63
2019-02-27T18:02:23.910Z,39.03
2019-02-27T18:04:58.339Z,37.63
2019-02-27T18:07:34.389Z,34.95
2019-02-27T18:10:04.186Z,36.90
2019-02-27T18:12:35.901Z,37.53
2019-02-27T18:15:07.964Z,43.75
2019-02-27T18:17:39.564Z,35.60
2019-02-27T18:20:11.360Z,39.70
2019-02-27T18:22:45.872Z,34.80
2019-02-27T18:25:18.014Z,33.25
2019-02-27T18:27:50.124Z,32.90
2019-02-27T18:30:22.093Z,30.00
2019-02-27T18:32:53.733Z,30.17
2019-02-27T18:35:28.765Z,24.37
2019-02-27T18:37:58.636Z,27.30
2019-02-27T18:40:30.271Z,29.82
2019-02-27T18:43:01.778Z,29.25
2019-02-27T18:45:33.262Z,29.23
2019-02-27T18:48:07.332Z,30.32
2019-02-27T18:50:38.024Z,29.57
2019-02-27T18:53:12.925Z,32.90
2019-02-27T18:55:44.062Z,31.95
2019-02-27T18:58:18.239Z,32.15
2019-02-27T19:00:48.945Z,29.70
2019-02-27T19:03:25.435Z,30.95
2019-02-27T19:05:53.762Z,27.60
2019-02-27T19:08:28.018Z,36.48
2019-02-27T19:10:58.538Z,38.48
2019-02-27T19:13:31.768Z,34.23
2019-02-27T19:16:03.213Z,38.98
2019-02-27T19:18:34.891Z,35.52
2019-02-27T19:21:06.569Z,42.88
2019-02-27T19:23:38.319Z,36.55
2019-02-27T19:26:10.052Z,42.78
2019-02-27T19:28:41.777Z,47.43
2019-02-27T19:31:16.410Z,44.48
2019-02-27T19:33:46.806Z,40.58
2019-02-27T19:36:19.424Z,35.80
2019-02-27T19:38:51.524Z,38.10
2019-02-27T19:41:23.408Z,42.83
2019-02-27T19:43:55.970Z,39.65
2019-02-27T19:46:27.688Z,39.35
2019-02-27T19:49:00.786Z,31.42
2019-02-27T19:51:32.601Z,25.75
2019-02-27T19:54:03.925Z,25.82
2019-02-27T19:56:36.260Z,25.75
2019-02-27T19:59:09.325Z,25.77
2019-02-27T20:01:46.265Z,23.60
2019-02-27T20:04:13.927Z,24.07
2019-02-27T20:06:45.539Z,26.07
2019-02-27T20:09:20.130Z,26.97
2019-02-27T20:11:50.036Z,22.95
2019-02-27T20:14:21.540Z,28.57
2019-02-27T20:16:55.358Z,24.07
2019-02-27T20:19:29.009Z,27.35
2019-02-27T20:21:59.997Z,23.00
2019-02-27T20:24:32.433Z,25.82
2019-02-27T20:27:04.550Z,24.18
2019-02-27T20:29:39.251Z,22.65
2019-02-27T20:32:09.128Z,20.40
2019-02-27T20:34:42.627Z,22.07
2019-02-27T20:37:13.484Z,21.85
2019-02-27T20:39:45.036Z,20.60
2019-02-27T20:42:16.494Z,20.10
2019-02-27T20:44:47.825Z,22.30
2019-02-27T20:47:21.909Z,19.60
2019-02-27T20:49:52.443Z,16.67
2019-02-27T20:52:23.680Z,14.55
2019-02-27T20:54:55.228Z,17.90
2019-02-27T20:57:26.929Z,18.00
2019-02-27T21:00:02.424Z,14.58
2019-02-27T21:02:33.381Z,17.73
2019-02-27T21:05:06.750Z,13.70
2019-02-27T21:07:38.067Z,14.58
2019-02-27T21:10:12.618Z,13.70
2019-02-27T21:12:53.466Z,13.68
2019-02-27T21:15:17.756Z,13.00
2019-02-27T21:17:49.093Z,10.98
2019-02-27T21:20:21.119Z,11.25
2019-02-27T21:22:52.931Z,12.43
2019-02-27T21:25:24.884Z,9.53
2019-02-27T21:27:56.784Z,11.22
2019-02-27T21:30:28.464Z,8.20
2019-02-27T21:33:00.183Z,9.98
2019-02-27T21:35:32.859Z,9.58
2019-02-27T21:38:04.451Z,10.50
2019-02-27T21:40:36.914Z,12.05
2019-02-27T21:43:09.318Z,8.90
2019-02-27T21:45:41.047Z,10.93
2019-02-27T21:48:12.491Z,8.65
2019-02-27T21:50:45.226Z,9.50
2019-02-27T21:53:16.626Z,11.53
2019-02-27T21:55:48.052Z,7.92
2019-02-27T21:58:20.561Z,10.03
2019-02-27T22:00:52.398Z,8.30
2019-02-27T22:03:24.043Z,10.78
2019-02-27T22:05:55.994Z,9.38
2019-02-27T22:08:27.947Z,12.28
2019-02-27T22:11:00.197Z,8.00
2019-02-27T22:13:32.361Z,10.28
2019-02-27T22:16:04.148Z,9.75
2019-02-27T22:18:35.696Z,11.68
2019-02-27T22:21:07.189Z,12.93
2019-02-27T22:23:38.722Z,11.50
2019-02-27T22:26:10.488Z,7.60
2019-02-27T22:28:43.179Z,9.73
2019-02-27T22:31:14.873Z,10.58
2019-02-27T22:33:46.263Z,9.03
2019-02-27T22:36:17.922Z,8.00
2019-02-27T22:38:49.490Z,8.33
2019-02-27T22:41:21.295Z,9.48
2019-02-27T22:43:53.207Z,9.18
2019-02-27T22:46:25.996Z,12.90
2019-02-27T22:48:59.965Z,10.80
2019-02-27T22:51:31.679Z,9.08
2019-02-27T22:54:03.332Z,9.03
2019-02-27T22:56:34.776Z,9.65
2019-02-27T22:59:06.297Z,11.38
2019-02-27T23:01:49.252Z,9.58
2019-02-27T23:04:18.200Z,11.80
2019-02-27T23:06:49.698Z,11.12
2019-02-27T23:09:25.640Z,12.63
2019-02-27T23:11:56.203Z,10.82
2019-02-27T23:14:27.713Z,12.00
2019-02-27T23:17:00.607Z,9.88
2019-02-27T23:19:33.721Z,11.10
2019-02-27T23:22:05.501Z,14.33
2019-02-27T23:24:36.719Z,10.88
2019-02-27T23:27:08.444Z,11.05
2019-02-27T23:29:40.639Z,10.95
2019-02-27T23:32:12.103Z,12.25
2019-02-27T23:34:43.705Z,13.43
2019-02-27T23:37:15.252Z,11.83
2019-02-27T23:39:46.962Z,8.98
2019-02-27T23:42:18.480Z,11.73
2019-02-27T23:44:50.190Z,12.30
2019-02-27T23:47:21.683Z,9.68
2019-02-27T23:49:53.118Z,11.80
2019-02-27T23:52:24.665Z,12.23
2019-02-27T23:54:56.220Z,13.32
2019-02-27T23:57:27.488Z,11.85
2019-02-27T23:59:59.087Z,10.00
